Time;durP1;ratioP1;P1;durP2;ratioP2;P2;SDS_P1;SDS_P2;PMS_P1;PMS_P2;Temp;Humidity;BMP_temperature;BMP_pressure;BME280_temperature;BME280_humidity;BME280_pressure;Samples;Min_cycle;Max_cycle;Signal;HPM_P1;HPM_P2
2022/12/12 00:00:58;;;;;;;27.60;13.07;;;-6.20;1.00;-6.10;93016.00;;;;7400678;19;20150;-75
2022/12/12 00:03:30;;;;;;;25.43;13.27;;;-6.20;1.00;-6.00;93060.00;;;;7401540;19;20129;-75
2022/12/12 00:05:57;;;;;;;25.37;12.63;;;-6.20;1.00;-5.90;93061.00;;;;7400427;19;20143;-74
2022/12/12 00:08:31;;;;;;;26.63;13.17;;;-6.10;1.00;-5.90;93060.00;;;;7398651;19;20138;-75
2022/12/12 00:10:59;;;;;;;25.93;12.57;;;-6.10;1.00;-5.80;93063.00;;;;7399678;19;20453;-75
2022/12/12 00:13:26;;;;;;;28.17;12.97;;;-6.10;1.00;-5.90;93060.00;;;;7399210;19;20591;-75
2022/12/12 00:16:06;;;;;;;28.30;13.00;;;-6.10;1.00;-5.90;93029.00;;;;7399679;19;20132;-75
2022/12/12 00:18:37;;;;;;;29.13;12.70;;;-6.00;1.00;-5.90;93073.00;;;;7398841;19;20490;-75
2022/12/12 00:21:19;;;;;;;32.27;13.40;;;-6.00;1.00;-5.90;93055.00;;;;7399089;19;20133;-74
2022/12/12 00:23:47;;;;;;;28.60;13.20;;;-6.00;1.00;-5.90;93051.00;;;;7400888;19;20587;-75
2022/12/12 00:26:31;;;;;;;25.13;12.30;;;-6.00;1.00;-5.80;93055.00;;;;7399144;19;20473;-74
2022/12/12 00:29:01;;;;;;;24.30;11.70;;;-6.00;1.00;-5.80;93068.00;;;;7400372;19;20133;-74
2022/12/12 00:31:35;;;;;;;21.93;11.30;;;-6.10;1.00;-5.80;93029.00;;;;7398800;19;20189;-74
2022/12/12 00:34:02;;;;;;;24.87;11.90;;;-6.00;1.00;-5.90;93065.00;;;;7398690;19;20627;-75
2022/12/12 00:36:30;;;;;;;27.53;11.60;;;-6.10;1.00;-5.70;93049.00;;;;7398758;19;20165;-75
2022/12/12 00:39:04;;;;;;;25.47;12.40;;;-6.00;1.00;-5.80;93056.00;;;;7398557;19;20159;-75
2022/12/12 00:41:31;;;;;;;27.53;12.20;;;-6.00;1.00;-5.80;93053.00;;;;7400055;19;20592;-75
2022/12/12 00:43:58;;;;;;;25.30;12.07;;;-6.00;1.40;-5.80;93060.00;;;;7400223;19;20129;-75
2022/12/12 00:46:32;;;;;;;24.37;11.90;;;-6.10;99.90;-6.00;93060.00;;;;7399525;19;20489;-75
2022/12/12 00:48:59;;;;;;;25.77;12.13;;;-6.00;99.90;-6.10;93049.00;;;;7400006;19;20141;-75
2022/12/12 00:51:28;;;;;;;27.10;13.53;;;-5.90;99.90;-5.70;93055.00;;;;7393557;19;20125;-75
2022/12/12 00:54:02;;;;;;;30.60;11.17;;;-5.90;99.90;-5.60;93052.00;;;;7383485;19;20128;-75
2022/12/12 00:56:42;;;;;;;27.47;12.33;;;-6.00;99.90;-5.60;93008.00;;;;7397770;19;20152;-75
2022/12/12 00:59:18;;;;;;;24.07;11.67;;;-5.90;99.90;-5.80;93030.00;;;;7397805;19;20136;-75
2022/12/12 01:01:46;;;;;;;28.33;12.60;;;-5.90;99.90;-5.90;93052.00;;;;7397047;19;20137;-74
2022/12/12 01:04:16;;;;;;;29.43;13.03;;;-6.00;99.90;-5.80;93065.00;;;;7398319;19;20141;-75
2022/12/12 01:06:50;;;;;;;26.50;12.47;;;-6.00;99.90;-5.80;93030.00;;;;7398081;19;20129;-75
2022/12/12 01:09:17;;;;;;;27.67;12.27;;;-5.90;99.90;-5.90;93028.00;;;;7397625;19;20124;-75
2022/12/12 01:11:44;;;;;;;29.40;13.37;;;-5.90;99.90;-5.70;93018.00;;;;7397384;19;20164;-76
2022/12/12 01:14:18;;;;;;;26.00;12.80;;;-5.80;99.90;-5.70;93065.00;;;;7396788;19;20164;-75
2022/12/12 01:16:45;;;;;;;34.33;13.13;;;-5.80;99.90;-5.60;93034.00;;;;7397709;19;20128;-75
2022/12/12 01:19:12;;;;;;;23.57;11.60;;;-5.80;99.90;-5.50;93046.00;;;;7398950;19;20152;-75
2022/12/12 01:21:48;;;;;;;26.37;12.03;;;-5.90;99.90;-5.70;93059.00;;;;7396817;19;20136;-75
2022/12/12 01:24:15;;;;;;;31.00;12.67;;;-5.90;99.90;-5.70;93070.00;;;;7397164;19;20153;-75
2022/12/12 01:26:42;;;;;;;28.77;12.53;;;-5.90;99.90;-5.80;93055.00;;;;7397592;19;20132;-75
2022/12/12 01:29:16;;;;;;;24.07;12.17;;;-5.90;99.90;-5.80;93052.00;;;;7398658;19;20119;-75
2022/12/12 01:31:43;;;;;;;24.70;12.33;;;-5.90;99.90;-5.70;93070.00;;;;7398814;19;20121;-75
2022/12/12 01:34:10;;;;;;;24.50;13.03;;;-5.90;99.90;-5.70;93076.00;;;;7398633;19;20128;-74
2022/12/12 01:36:44;;;;;;;22.40;12.27;;;-5.90;99.90;-5.30;93078.00;;;;7395504;19;20563;-75
2022/12/12 01:39:11;;;;;;;25.87;13.07;;;-5.80;99.90;-5.30;93049.00;;;;7396990;19;20208;-76
2022/12/12 01:41:38;;;;;;;24.60;12.63;;;-5.80;99.90;-5.50;93091.00;;;;7397176;19;20508;-75
2022/12/12 01:44:39;;;;;;;28.97;13.70;;;-5.80;99.90;-5.60;93069.00;;;;7397030;19;20141;-75
2022/12/12 01:47:06;;;;;;;28.93;12.90;;;-5.80;99.90;-5.60;93078.00;;;;7396869;19;20520;-76
2022/12/12 01:49:45;;;;;;;23.63;11.63;;;-5.70;99.90;-5.70;93060.00;;;;7396720;19;20488;-75
2022/12/12 01:52:20;;;;;;;24.80;13.17;;;-5.80;99.90;-5.50;93051.00;;;;7396898;19;20148;-75
2022/12/12 01:55:01;;;;;;;26.27;12.17;;;-5.80;99.90;-5.40;93070.00;;;;7397488;19;20137;-75
2022/12/12 01:57:46;;;;;;;28.97;13.30;;;-5.80;99.90;-5.50;93087.00;;;;7392171;19;20162;-75
2022/12/12 02:00:26;;;;;;;26.50;12.57;;;-5.80;99.90;-5.60;93064.00;;;;7395885;19;20478;-76
2022/12/12 02:02:54;;;;;;;28.77;12.60;;;-5.80;99.90;-5.80;93048.00;;;;7398230;19;20128;-75
2022/12/12 02:05:36;;;;;;;25.40;13.17;;;-5.90;99.90;-6.00;93088.00;;;;7398234;19;20499;-75
2022/12/12 02:08:06;;;;;;;27.97;13.27;;;-6.00;99.90;-6.00;93032.00;;;;7397493;19;20141;-75
2022/12/12 02:10:40;;;;;;;30.47;12.43;;;-6.10;99.90;-6.20;93087.00;;;;7396774;19;20145;-75
2022/12/12 02:13:23;;;;;;;31.07;13.67;;;-6.20;99.90;-6.20;93062.00;;;;7397136;19;20133;-75
2022/12/12 02:16:43;;;;;;;26.67;13.50;;;-6.30;99.90;-6.40;93083.00;;;;7395434;19;20193;-75
2022/12/12 02:19:31;;;;;;;30.63;13.53;;;-6.50;99.90;-6.60;93083.00;;;;7400333;19;20141;-75
2022/12/12 02:22:39;;;;;;;26.90;12.33;;;-6.60;99.90;-6.70;93030.00;;;;7404344;19;20592;-75
2022/12/12 02:25:30;;;;;;;27.60;13.17;;;-6.70;99.90;-6.80;93089.00;;;;7403018;19;20591;-75
2022/12/12 02:28:35;;;;;;;26.03;13.17;;;-6.90;99.90;-6.80;93083.00;;;;7404451;19;20491;-75
2022/12/12 02:31:24;;;;;;;26.57;13.43;;;-6.90;99.90;-7.00;93087.00;;;;7401227;19;20136;-75
2022/12/12 02:34:12;;;;;;;28.20;12.83;;;-7.00;99.90;-7.10;93074.00;;;;7404333;19;20147;-75
2022/12/12 02:36:59;;;;;;;28.20;12.33;;;-7.10;99.90;-7.10;93086.00;;;;7401493;19;20137;-75
2022/12/12 02:40:08;;;;;;;24.07;11.97;;;-7.20;99.90;-7.30;93050.00;;;;7402876;19;20160;-75
2022/12/12 02:42:59;;;;;;;30.53;12.83;;;-7.20;99.90;-7.30;93052.00;;;;7404265;19;20125;-75
2022/12/12 02:45:49;;;;;;;29.27;12.73;;;-7.30;99.90;-7.50;93071.00;;;;7399591;19;20149;-75
2022/12/12 02:48:27;;;;;;;22.13;10.80;;;-7.40;99.90;-7.60;93086.00;;;;7402269;19;20188;-74
2022/12/12 02:51:07;;;;;;;26.50;12.20;;;-7.60;1.00;-7.70;93084.00;;;;7403362;19;20141;-75
2022/12/12 02:53:34;;;;;;;25.13;11.20;;;-7.80;1.00;-7.90;93044.00;;;;7403730;19;20127;-75
2022/12/12 02:56:55;;;;;;;24.80;11.97;;;-7.90;1.00;-8.00;93086.00;;;;7401380;19;20215;-75
2022/12/12 02:59:37;;;;;;;25.70;11.30;;;-8.00;1.00;-8.00;93089.00;;;;7403207;19;20123;-75
2022/12/12 03:02:42;;;;;;;23.30;11.83;;;-8.10;1.00;-8.00;93088.00;;;;7401712;19;20612;-75
2022/12/12 03:09:19;;;;;;;24.27;11.57;;;-8.10;1.00;-8.00;93087.00;;;;7403463;19;20143;-76
2022/12/12 03:12:15;;;;;;;24.03;10.43;;;-8.10;3.20;-8.00;93093.00;;;;7403223;19;20594;-75
2022/12/12 03:15:01;;;;;;;23.67;11.73;;;-8.10;24.60;-8.10;93052.00;;;;7399088;19;20178;-75
2022/12/12 03:17:40;;;;;;;18.67;9.90;;;-8.10;35.00;-8.00;93077.00;;;;7399003;19;20160;-75
2022/12/12 03:20:27;;;;;;;22.47;10.20;;;-8.10;31.60;-8.00;93090.00;;;;7401683;19;20140;-75
2022/12/12 03:23:01;;;;;;;25.43;12.00;;;-8.10;29.00;-8.20;93073.00;;;;7400934;19;20600;-75
2022/12/12 03:26:02;;;;;;;22.93;11.73;;;-8.20;1.90;-8.30;93064.00;;;;7402649;19;20120;-75
2022/12/12 03:28:45;;;;;;;22.43;10.63;;;-8.20;1.00;-8.40;93088.00;;;;7399893;19;20275;-74
2022/12/12 03:31:27;;;;;;;25.77;10.90;;;-8.40;1.00;-8.40;93066.00;;;;7402393;19;20132;-75
2022/12/12 03:34:05;;;;;;;22.83;10.60;;;-8.40;1.00;-8.30;93081.00;;;;7400969;19;20154;-75
2022/12/12 03:37:05;;;;;;;24.20;10.73;;;-8.40;1.00;-8.50;93066.00;;;;7401216;19;20159;-75
2022/12/12 03:39:48;;;;;;;23.83;10.00;;;-8.50;1.00;-8.60;93074.00;;;;7401157;19;20212;-75
2022/12/12 03:42:47;;;;;;;22.33;11.07;;;-8.70;1.00;-8.60;93071.00;;;;7400438;19;20541;-75
2022/12/12 03:45:36;;;;;;;23.43;11.60;;;-8.80;1.00;-8.50;93085.00;;;;7400346;19;20602;-75
2022/12/12 03:48:30;;;;;;;24.83;10.77;;;-8.70;1.00;-8.40;93079.00;;;;7400910;19;20136;-73
2022/12/12 03:51:08;;;;;;;25.40;11.40;;;-8.60;1.00;-8.30;93087.00;;;;7400632;19;20647;-75
2022/12/12 03:53:51;;;;;;;23.30;11.03;;;-8.60;1.00;-8.30;93057.00;;;;7401672;19;20151;-75
2022/12/12 03:57:05;;;;;;;25.03;10.73;;;-8.50;9.50;-8.20;93085.00;;;;7398653;19;20220;-75
2022/12/12 04:00:06;;;;;;;22.97;10.37;;;-8.50;44.80;-8.10;93054.00;;;;7400029;19;20132;-75
2022/12/12 04:02:54;;;;;;;29.13;12.57;;;-8.40;99.90;-8.20;93091.00;;;;7400174;19;20148;-75
2022/12/12 04:06:25;;;;;;;22.33;10.63;;;-8.30;99.90;-8.20;93081.00;;;;7400268;19;20140;-75
2022/12/12 04:08:28;;;;;;;20.17;9.77;;;-8.30;99.90;-8.30;93065.00;;;;7399320;19;20171;-75
2022/12/12 04:15:01;;;;;;;22.30;10.53;;;-8.60;1.00;-8.70;93043.00;;;;7399982;19;20194;-75
2022/12/12 04:18:14;;;;;;;22.17;10.77;;;-8.60;1.00;-8.80;93090.00;;;;7397670;19;20208;-75
2022/12/12 04:24:39;;;;;;;21.00;11.00;;;-8.90;1.00;-8.70;93093.00;;;;7399098;19;20520;-75
2022/12/12 04:27:21;;;;;;;22.50;11.10;;;-9.00;1.00;-8.70;93045.00;;;;7399332;19;20155;-75
2022/12/12 04:30:01;;;;;;;24.03;11.30;;;-8.90;1.00;-8.70;93093.00;;;;7399138;19;20145;-74
2022/12/12 04:32:37;;;;;;;22.63;11.03;;;-8.90;1.00;-8.90;93097.00;;;;7400262;19;20131;-75
2022/12/12 04:35:26;;;;;;;24.43;10.97;;;-8.90;1.00;-9.00;93102.00;;;;7398884;19;20597;-75
2022/12/12 04:38:03;;;;;;;19.43;10.93;;;-8.90;1.00;-8.90;93076.00;;;;7398788;19;20130;-75
2022/12/12 04:40:42;;;;;;;23.67;11.00;;;-9.00;1.00;-9.00;93084.00;;;;7397367;19;20215;-74
2022/12/12 04:43:19;;;;;;;26.20;11.67;;;-9.10;1.00;-9.00;93106.00;;;;7398589;19;20141;-75
2022/12/12 04:46:19;;;;;;;23.60;10.70;;;-9.10;1.00;-9.00;93102.00;;;;7394549;19;20608;-75
2022/12/12 04:48:54;;;;;;;22.37;11.00;;;-9.10;1.00;-9.10;93074.00;;;;7397848;19;20475;-75
2022/12/12 04:51:33;;;;;;;26.93;11.17;;;-9.20;1.00;-9.30;93105.00;;;;7398651;19;20635;-74
2022/12/12 04:54:20;;;;;;;24.10;11.00;;;-9.30;99.90;-9.50;93056.00;;;;7393434;19;20151;-75
2022/12/12 04:57:08;;;;;;;25.67;11.63;;;-9.40;99.90;-9.50;93062.00;;;;7388067;19;20207;-75
2022/12/12 04:59:35;;;;;;;23.47;11.10;;;-9.60;99.90;-9.40;93094.00;;;;7398243;19;20162;-75
2022/12/12 05:02:43;;;;;;;24.50;11.03;;;-9.60;99.90;-9.50;93102.00;;;;7397296;19;20198;-75
2022/12/12 05:05:33;;;;;;;27.47;11.50;;;-9.70;99.90;-9.60;93110.00;;;;7398241;19;20600;-74
2022/12/12 05:08:47;;;;;;;24.27;10.57;;;-9.80;99.90;-9.80;93104.00;;;;7399226;19;20143;-75
2022/12/12 05:11:17;;;;;;;22.60;10.60;;;-9.80;99.90;-9.60;93103.00;;;;7398161;19;20208;-75
2022/12/12 05:13:51;;;;;;;28.53;12.33;;;-9.90;99.90;-9.50;93070.00;;;;7398385;19;20202;-76
2022/12/12 05:16:31;;;;;;;20.53;10.43;;;-9.90;99.90;-9.40;93110.00;;;;7397098;19;20681;-74
2022/12/12 05:19:05;;;;;;;22.03;10.00;;;-9.80;99.90;-9.70;93104.00;;;;7397178;19;20133;-75
2022/12/12 05:21:32;;;;;;;20.07;10.37;;;-9.80;99.90;-9.70;93066.00;;;;7397289;19;20142;-75
2022/12/12 05:23:59;;;;;;;24.23;10.30;;;-9.90;99.90;-9.80;93109.00;;;;7397200;19;20144;-74
2022/12/12 05:26:34;;;;;;;23.33;10.63;;;-9.90;99.90;-9.70;93088.00;;;;7397176;19;20173;-75
2022/12/12 05:29:03;;;;;;;21.77;10.07;;;-9.90;99.90;-9.60;93103.00;;;;7397284;19;20131;-75
2022/12/12 05:31:34;;;;;;;24.43;10.90;;;-9.90;99.90;-9.40;93125.00;;;;7397635;19;20138;-75
2022/12/12 05:34:09;;;;;;;20.97;9.93;;;-9.80;99.90;-9.10;93105.00;;;;7398500;19;20154;-75
2022/12/12 05:36:36;;;;;;;28.77;11.63;;;-9.60;1.00;-8.90;93110.00;;;;7396674;19;20128;-75
2022/12/12 05:39:03;;;;;;;22.57;11.57;;;-9.30;1.00;-8.70;93101.00;;;;7398648;19;20132;-75
2022/12/12 05:41:37;;;;;;;22.50;10.93;;;-9.10;86.50;-8.60;93137.00;;;;7396953;19;20126;-75
2022/12/12 05:44:04;;;;;;;22.77;11.93;;;-9.00;99.90;-8.50;93097.00;;;;7396609;19;20132;-75
2022/12/12 05:46:31;;;;;;;21.43;10.63;;;-8.90;99.90;-8.60;93062.00;;;;7393322;19;20135;-75
2022/12/12 05:49:05;;;;;;;24.23;11.27;;;-8.80;99.90;-8.50;93125.00;;;;7395913;19;20143;-76
2022/12/12 05:51:32;;;;;;;27.27;11.17;;;-8.80;99.90;-8.50;93089.00;;;;7397058;19;20486;-75
2022/12/12 05:53:59;;;;;;;21.90;11.23;;;-8.70;99.90;-8.50;93129.00;;;;7401283;19;20949;-75
2022/12/12 05:56:46;;;;;;;25.73;11.67;;;-8.70;99.90;-8.40;93075.00;;;;7404242;19;20168;-75
2022/12/12 05:59:20;;;;;;;22.73;11.93;;;-8.70;99.90;-8.40;93102.00;;;;7404363;19;20489;-75
2022/12/12 06:01:53;;;;;;;21.17;11.83;;;-8.60;94.60;-8.40;93112.00;;;;7404927;19;20149;-76
2022/12/12 06:04:20;;;;;;;23.43;10.90;;;-8.60;99.90;-8.40;93135.00;;;;7406174;19;20132;-75
2022/12/12 06:06:47;;;;;;;22.87;11.43;;;-8.50;99.90;-8.50;93094.00;;;;7404256;19;20128;-75
2022/12/12 06:09:21;;;;;;;22.40;11.37;;;-8.60;99.90;-8.50;93138.00;;;;7404391;19;20131;-76
2022/12/12 06:11:48;;;;;;;27.07;11.30;;;-8.60;13.20;-8.50;93145.00;;;;7405371;19;20135;-76
2022/12/12 06:14:15;;;;;;;22.20;11.53;;;-8.70;1.00;-8.50;93135.00;;;;7402776;19;20198;-76
2022/12/12 06:16:49;;;;;;;24.07;11.83;;;-8.70;1.00;-8.50;93080.00;;;;7403293;19;20942;-75
2022/12/12 06:19:19;;;;;;;24.07;11.67;;;-8.70;1.00;-8.30;93138.00;;;;7403420;19;20612;-75
2022/12/12 06:21:46;;;;;;;25.23;11.57;;;-8.60;19.70;-8.30;93107.00;;;;7403209;19;20627;-76
2022/12/12 06:24:20;;;;;;;27.47;12.27;;;-8.50;95.90;-8.20;93108.00;;;;7402069;19;20162;-75
2022/12/12 06:26:47;;;;;;;23.43;11.60;;;-8.40;99.90;-8.10;93103.00;;;;7402014;19;20514;-76
2022/12/12 06:29:14;;;;;;;26.07;12.27;;;-8.40;99.90;-8.00;93129.00;;;;7404342;19;20144;-75
2022/12/12 06:31:48;;;;;;;28.60;12.60;;;-8.30;99.90;-7.90;93119.00;;;;7402199;19;20155;-75
2022/12/12 06:34:15;;;;;;;27.77;12.13;;;-8.10;99.90;-7.70;93130.00;;;;7397828;19;20164;-75
2022/12/12 06:36:42;;;;;;;26.80;12.50;;;-8.00;99.90;-7.60;93133.00;;;;7403615;19;20599;-75
2022/12/12 06:39:16;;;;;;;26.60;12.47;;;-7.90;99.90;-7.50;93116.00;;;;7402017;19;20156;-76
2022/12/12 06:41:46;;;;;;;27.47;12.97;;;-7.80;99.90;-7.50;93159.00;;;;7403095;19;20621;-76
2022/12/12 06:44:13;;;;;;;28.50;12.90;;;-7.70;99.90;-7.30;93153.00;;;;7400761;19;20614;-76
2022/12/12 06:46:47;;;;;;;25.90;12.37;;;-7.50;99.90;-7.30;93128.00;;;;7398047;19;20164;-75
2022/12/12 06:49:14;;;;;;;28.67;12.97;;;-7.40;99.90;-7.20;93117.00;;;;7392354;19;20584;-75
2022/12/12 06:51:44;;;;;;;26.97;11.70;;;-7.30;99.90;-7.20;93158.00;;;;7401226;19;20129;-74
2022/12/12 06:54:30;;;;;;;25.50;11.87;;;-7.20;99.90;-7.20;93126.00;;;;7401679;19;20169;-76
2022/12/12 06:57:04;;;;;;;21.40;11.53;;;-7.20;99.90;-7.30;93168.00;;;;7402017;19;20153;-74
2022/12/12 06:59:44;;;;;;;26.17;11.90;;;-7.30;99.90;-7.40;93172.00;;;;7401650;19;20141;-76
2022/12/12 07:02:11;;;;;;;26.43;12.10;;;-7.30;99.90;-7.40;93129.00;;;;7400404;19;20128;-76
2022/12/12 07:04:54;;;;;;;23.27;10.60;;;-7.40;99.90;-7.60;93110.00;;;;7402437;19;21022;-75
2022/12/12 07:07:21;;;;;;;24.60;11.23;;;-7.50;99.90;-7.70;93132.00;;;;7397677;19;20166;-76
2022/12/12 07:09:55;;;;;;;24.80;12.27;;;-7.50;99.90;-7.70;93169.00;;;;7397551;19;20133;-76
2022/12/12 07:12:22;;;;;;;23.80;11.13;;;-7.50;99.90;-7.70;93140.00;;;;7400524;19;20133;-78
2022/12/12 07:14:50;;;;;;;23.97;11.20;;;-7.60;99.90;-7.70;93128.00;;;;7396551;19;20155;-76
2022/12/12 07:17:24;;;;;;;21.60;11.07;;;-7.60;99.90;-7.70;93104.00;;;;7399046;19;20180;-76
2022/12/12 07:19:51;;;;;;;25.13;11.30;;;-7.60;99.90;-7.80;93132.00;;;;7399907;19;20502;-76
2022/12/12 07:22:18;;;;;;;23.43;10.70;;;-7.60;99.90;-7.80;93130.00;;;;7402058;19;20136;-75
2022/12/12 07:24:52;;;;;;;23.23;11.00;;;-7.60;99.90;-7.70;93153.00;;;;7398460;19;20156;-76
2022/12/12 07:27:19;;;;;;;23.10;10.77;;;-7.60;99.90;-7.70;93172.00;;;;7401090;19;20595;-76
2022/12/12 07:29:47;;;;;;;27.33;11.87;;;-7.60;99.90;-7.70;93179.00;;;;7401071;19;20136;-75
2022/12/12 07:32:21;;;;;;;22.90;10.57;;;-7.60;72.70;-7.70;93135.00;;;;7399309;19;20149;-75
2022/12/12 07:34:48;;;;;;;22.37;10.60;;;-7.70;87.00;-7.70;93158.00;;;;7398853;19;20488;-76
2022/12/12 07:37:15;;;;;;;21.33;10.40;;;-7.70;86.60;-7.60;93190.00;;;;7400762;19;20752;-76
2022/12/12 07:39:49;;;;;;;21.10;10.03;;;-7.60;99.90;-7.40;93155.00;;;;7399253;19;20143;-75
2022/12/12 07:42:16;;;;;;;20.53;10.17;;;-7.60;99.90;-7.20;93145.00;;;;7394748;19;20157;-74
2022/12/12 07:44:43;;;;;;;25.23;11.10;;;-7.40;99.90;-7.00;93195.00;;;;7394349;19;20176;-76
2022/12/12 07:47:17;;;;;;;19.20;9.53;;;-7.30;99.90;-6.80;93167.00;;;;7400384;19;20141;-76
2022/12/12 07:49:45;;;;;;;17.30;9.00;;;-7.10;99.90;-6.90;93171.00;;;;7398527;19;20521;-76
2022/12/12 07:52:12;;;;;;;23.47;11.00;;;-7.00;99.90;-6.70;93201.00;;;;7397915;19;20155;-76
2022/12/12 07:54:45;;;;;;;19.23;10.30;;;-6.90;99.90;-6.50;93200.00;;;;7398750;19;20129;-75
2022/12/12 07:57:19;;;;;;;21.53;10.53;;;-6.80;99.90;-6.30;93198.00;;;;7393862;19;20173;-75
2022/12/12 07:59:52;;;;;;;21.53;10.17;;;-6.70;99.90;-6.10;93211.00;;;;7396077;19;20193;-74
2022/12/12 08:02:20;;;;;;;18.07;9.63;;;-6.50;1.00;-5.90;93204.00;;;;7397650;19;20148;-75
2022/12/12 08:04:47;;;;;;;21.63;10.53;;;-6.30;1.00;-5.70;93157.00;;;;7397349;19;20138;-75
2022/12/12 08:07:20;;;;;;;19.50;9.60;;;-6.20;1.00;-5.70;93190.00;;;;7396672;19;20220;-76
2022/12/12 08:09:47;;;;;;;19.83;10.20;;;-6.00;1.00;-5.50;93166.00;;;;7396436;19;20223;-75
2022/12/12 08:12:14;;;;;;;25.27;10.63;;;-5.90;1.00;-5.40;93196.00;;;;7397943;19;20144;-76
2022/12/12 08:14:48;;;;;;;18.37;9.63;;;-5.80;1.00;-5.20;93194.00;;;;7398082;19;20160;-76
2022/12/12 08:17:15;;;;;;;19.17;9.83;;;-5.70;1.00;-5.10;93205.00;;;;7394981;19;20129;-76
2022/12/12 08:19:42;;;;;;;18.70;8.70;;;-5.60;1.00;-4.90;93168.00;;;;7399925;19;20200;-76
2022/12/12 08:22:17;;;;;;;22.93;10.10;;;-5.50;1.00;-4.90;93189.00;;;;7396837;19;20138;-78
2022/12/12 08:24:44;;;;;;;17.13;8.27;;;-5.40;99.90;-4.90;93185.00;;;;7397514;19;20656;-77
2022/12/12 08:27:11;;;;;;;16.90;8.97;;;-5.30;99.90;-4.90;93201.00;;;;7397675;19;20163;-78
2022/12/12 08:29:45;;;;;;;18.43;8.10;;;-5.20;99.90;-4.70;93216.00;;;;7399504;19;20478;-77
2022/12/12 08:32:12;;;;;;;13.13;7.77;;;-5.10;99.90;-4.50;93221.00;;;;7397705;19;20158;-77
2022/12/12 08:34:39;;;;;;;14.27;7.80;;;-5.00;99.90;-4.50;93189.00;;;;7398102;19;20161;-77
2022/12/12 08:37:13;;;;;;;16.90;8.17;;;-5.00;99.90;-4.50;93179.00;;;;7399038;19;20127;-80
2022/12/12 08:39:40;;;;;;;15.60;8.57;;;-5.00;99.90;-4.60;93179.00;;;;7401009;19;20153;-79
2022/12/12 08:42:07;;;;;;;12.53;7.27;;;-4.90;56.60;-4.50;93215.00;;;;7397625;19;20511;-76
2022/12/12 08:44:42;;;;;;;12.87;6.80;;;-4.90;1.00;-4.40;93218.00;;;;7392097;19;20639;-78
2022/12/12 08:47:10;;;;;;;14.10;7.37;;;-4.90;1.00;-4.40;93227.00;;;;7398445;19;20143;-76
2022/12/12 08:49:37;;;;;;;14.53;7.73;;;-4.80;1.00;-4.30;93187.00;;;;7396801;19;20134;-79
2022/12/12 08:52:11;;;;;;;13.47;7.20;;;-4.70;1.00;-4.20;93199.00;;;;7398637;19;20139;-77
2022/12/12 08:54:38;;;;;;;12.50;6.70;;;-4.70;1.00;-4.10;93220.00;;;;7396819;19;20139;-75
2022/12/12 08:57:05;;;;;;;11.03;6.80;;;-4.60;1.00;-4.20;93190.00;;;;7396946;19;20147;-79
2022/12/12 08:59:45;;;;;;;11.73;6.50;;;-4.50;1.00;-4.00;93220.00;;;;7398484;19;20640;-78
2022/12/12 09:02:12;;;;;;;13.60;7.20;;;-4.50;99.90;-4.20;93187.00;;;;7396553;19;20156;-81
2022/12/12 09:04:46;;;;;;;12.47;6.97;;;-4.50;99.90;-4.10;93218.00;;;;7398200;19;20590;-79
2022/12/12 09:07:13;;;;;;;10.37;6.43;;;-4.50;99.90;-4.10;93229.00;;;;7394377;19;20613;-78
2022/12/12 09:09:40;;;;;;;12.40;6.63;;;-4.50;99.90;-3.90;93236.00;;;;7395601;19;20479;-77
2022/12/12 09:12:14;;;;;;;12.67;6.50;;;-4.40;99.90;-3.70;93220.00;;;;7397228;19;20154;-77
2022/12/12 09:14:42;;;;;;;10.30;6.17;;;-4.30;99.90;-3.70;93226.00;;;;7396075;19;20238;-75
2022/12/12 09:17:09;;;;;;;11.20;6.17;;;-4.20;99.90;-3.70;93253.00;;;;7395842;19;20131;-77
2022/12/12 09:19:42;;;;;;;9.50;5.70;;;-4.20;99.90;-3.50;93227.00;;;;7394351;19;20131;-77
2022/12/12 09:22:09;;;;;;;11.23;6.77;;;-4.10;99.90;-3.40;93225.00;;;;7397867;19;20167;-77
2022/12/12 09:24:36;;;;;;;10.57;6.30;;;-3.90;99.90;-3.20;93240.00;;;;7394430;19;20149;-77
2022/12/12 09:27:10;;;;;;;10.40;5.93;;;-3.90;99.90;-3.20;93232.00;;;;7395968;19;20155;-76
2022/12/12 09:29:37;;;;;;;7.77;4.90;;;-3.90;70.00;-2.90;93220.00;;;;7397296;19;20129;-77
2022/12/12 09:32:05;;;;;;;10.30;5.23;;;-3.80;1.00;-3.00;93231.00;;;;7397197;19;20140;-76
2022/12/12 09:34:39;;;;;;;6.87;4.60;;;-3.70;1.00;-3.10;93216.00;;;;7398269;19;20612;-75
2022/12/12 09:37:06;;;;;;;8.90;5.20;;;-3.60;17.80;-2.90;93227.00;;;;7398142;19;20156;-75
2022/12/12 09:39:33;;;;;;;8.03;4.53;;;-3.40;99.90;-2.70;93253.00;;;;7396349;19;20191;-75
2022/12/12 09:42:21;;;;;;;7.37;4.23;;;-3.40;1.00;-2.60;93265.00;;;;7394240;19;20140;-78
2022/12/12 09:44:53;;;;;;;7.27;4.83;;;-3.20;32.40;-2.20;93229.00;;;;7395881;19;20163;-76
2022/12/12 09:47:52;;;;;;;6.97;4.10;;;-3.20;1.00;-2.30;93253.00;;;;7394024;19;21316;-76
2022/12/12 09:50:35;;;;;;;8.37;4.80;;;-3.10;1.00;-2.20;93256.00;;;;7391837;19;20169;-75
2022/12/12 09:53:16;;;;;;;6.27;4.17;;;-3.10;99.90;-2.50;93224.00;;;;7392431;19;20171;-75
2022/12/12 09:56:05;;;;;;;5.27;3.77;;;-3.10;99.90;-2.20;93237.00;;;;7392648;19;20472;-76
2022/12/12 09:59:37;;;;;;;7.00;4.53;;;-3.00;1.00;-2.00;93254.00;;;;7390064;19;20156;-76
2022/12/12 10:02:34;;;;;;;7.10;4.10;;;-3.10;1.00;-2.20;93257.00;;;;7393164;19;20588;-76
2022/12/12 10:05:14;;;;;;;6.70;4.30;;;-3.00;99.90;-2.20;93252.00;;;;7393001;19;20130;-76
2022/12/12 10:08:15;;;;;;;7.17;4.10;;;-3.00;99.90;-2.00;93214.00;;;;7392428;19;20193;-77
2022/12/12 10:11:03;;;;;;;7.23;4.37;;;-2.80;99.90;-1.90;93236.00;;;;7396597;19;20619;-78
2022/12/12 10:13:34;;;;;;;6.97;3.77;;;-2.70;1.00;-1.70;93241.00;;;;7399951;19;20140;-80
2022/12/12 10:16:13;;;;;;;5.63;3.53;;;-2.60;99.90;-1.80;93238.00;;;;7399461;19;20598;-78
2022/12/12 10:18:47;;;;;;;7.57;4.40;;;-2.70;1.00;-1.70;93215.00;;;;7395177;19;20451;-75
2022/12/12 10:21:29;;;;;;;6.93;4.30;;;-2.70;1.00;-1.40;93225.00;;;;7393425;19;20464;-76
2022/12/12 10:24:26;;;;;;;6.00;3.67;;;-2.50;1.00;-1.30;93247.00;;;;7392921;19;20675;-77
2022/12/12 10:27:10;;;;;;;6.73;4.43;;;-2.30;99.90;-1.10;93232.00;;;;7396790;19;20129;-76
2022/12/12 10:29:45;;;;;;;7.20;4.50;;;-2.10;1.00;-0.80;93230.00;;;;7394169;19;20497;-75
2022/12/12 10:32:37;;;;;;;6.33;4.17;;;-1.90;99.90;-0.60;93237.00;;;;7394408;19;20153;-76
2022/12/12 10:35:20;;;;;;;6.27;4.00;;;-1.70;1.00;-0.60;93229.00;;;;7393301;19;20156;-76
2022/12/12 10:38:31;;;;;;;7.60;4.67;;;-1.80;1.00;-0.60;93239.00;;;;7388816;19;20153;-75
2022/12/12 10:41:20;;;;;;;5.13;3.50;;;-1.80;99.90;-0.80;93226.00;;;;7399845;19;20136;-74
2022/12/12 10:44:38;;;;;;;8.70;5.00;;;-1.40;1.00;-0.10;93237.00;;;;7398472;19;20608;-74
2022/12/12 10:47:13;;;;;;;6.60;4.13;;;-1.00;1.00;0.30;93227.00;;;;7399466;19;20599;-75
2022/12/12 10:49:46;;;;;;;7.50;4.40;;;-0.90;1.00;0.60;93241.00;;;;7397965;19;20133;-74
2022/12/12 10:52:21;;;;;;;9.07;5.07;;;-0.60;1.00;0.90;93240.00;;;;7401624;19;20200;-74
2022/12/12 10:54:59;;;;;;;11.07;7.20;;;-0.30;99.90;0.80;93240.00;;;;7399785;19;20133;-74
2022/12/12 10:57:41;;;;;;;12.37;7.27;;;-0.30;99.90;1.50;93218.00;;;;7395902;19;20168;-74
2022/12/12 11:00:28;;;;;;;10.67;7.43;;;0.10;99.90;1.80;93230.00;;;;7398804;19;20156;-74
2022/12/12 11:02:57;;;;;;;8.80;6.37;;;0.60;99.90;2.70;93227.00;;;;7401216;19;20132;-74
2022/12/12 11:05:37;;;;;;;10.97;7.43;;;1.00;99.90;2.50;93218.00;;;;7400794;19;20212;-75
2022/12/12 11:11:18;;;;;;;8.37;5.30;;;1.30;1.00;1.50;93239.00;;;;6923675;19;9866100;-75
2022/12/12 11:14:18;;;;;;;7.37;4.87;;;1.30;99.90;2.60;93216.00;;;;7430424;19;20179;-75
2022/12/12 11:16:45;;;;;;;9.53;6.50;;;1.50;1.00;3.00;93209.00;;;;7430847;19;20163;-75
2022/12/12 11:19:38;;;;;;;13.53;7.87;;;1.70;21.90;3.10;93224.00;;;;7431192;19;20155;-74
2022/12/12 11:22:05;;;;;;;12.27;6.40;;;2.10;99.90;3.20;93231.00;;;;7431165;19;20158;-76
2022/12/12 11:24:46;;;;;;;11.73;6.77;;;2.10;99.90;2.40;93205.00;;;;7431973;19;20172;-74
2022/12/12 11:27:24;;;;;;;8.00;5.73;;;2.00;1.00;2.50;93231.00;;;;7430503;19;20156;-75
2022/12/12 11:30:16;;;;;;;8.23;5.70;;;2.10;1.00;2.50;93229.00;;;;7428778;19;20597;-74
2022/12/12 11:32:48;;;;;;;11.53;6.93;;;2.10;99.90;2.30;93236.00;;;;7434193;19;20124;-75
2022/12/12 11:35:30;;;;;;;11.30;7.00;;;1.90;99.90;2.10;93200.00;;;;7430931;19;20140;-75
2022/12/12 11:38:05;;;;;;;10.80;6.73;;;1.90;99.90;2.20;93238.00;;;;7430560;19;20502;-76
2022/12/12 11:40:39;;;;;;;7.53;5.80;;;1.80;99.90;2.10;93225.00;;;;7433253;19;20575;-76
2022/12/12 11:43:26;;;;;;;7.87;5.13;;;1.80;99.90;3.40;93207.00;;;;7432712;19;20223;-76
2022/12/12 11:46:30;;;;;;;7.03;4.67;;;2.20;40.40;4.50;93199.00;;;;7428910;19;20469;-76